createdAt,value
2022-08-11T00:00:15.023Z,67.81
2022-08-11T00:01:14.954Z,68.41
2022-08-11T00:02:15.403Z,67.91
2022-08-11T00:03:15.090Z,67.41
2022-08-11T00:04:14.935Z,68.51
2022-08-11T00:05:14.922Z,67.71
2022-08-11T00:06:14.922Z,68.82
2022-08-11T00:07:14.915Z,68.51
2022-08-11T00:08:14.895Z,68.41
2022-08-11T00:09:14.877Z,68.31
2022-08-11T00:10:14.867Z,68.71
2022-08-11T00:11:14.883Z,68.55
2022-08-11T00:12:14.875Z,69.15
2022-08-11T00:13:16.885Z,68.35
2022-08-11T00:14:14.826Z,68.75
2022-08-11T00:15:14.804Z,68.15
2022-08-11T00:16:14.814Z,69.25
2022-08-11T00:17:14.798Z,68.85
2022-08-11T00:18:14.787Z,69.65
2022-08-11T00:19:14.775Z,69.15
2022-08-11T00:20:16.950Z,69.15
2022-08-11T00:21:14.742Z,69.56
2022-08-11T00:22:14.747Z,68.65
2022-08-11T00:23:14.756Z,68.24
2022-08-11T00:24:14.719Z,68.44
2022-08-11T00:25:14.690Z,69.15
2022-08-11T00:26:14.706Z,68.24
2022-08-11T00:27:14.695Z,68.55
2022-08-11T00:28:14.658Z,69.56
2022-08-11T00:29:14.647Z,69.69
2022-08-11T00:30:14.660Z,69.89
2022-08-11T00:31:14.627Z,70.19
2022-08-11T00:32:14.619Z,69.09
2022-08-11T00:33:14.607Z,69.38
2022-08-11T00:34:14.625Z,70.50
2022-08-11T00:35:51.012Z,70.90
2022-08-11T00:36:15.584Z,70.50
2022-08-11T00:37:14.559Z,70.59
2022-08-11T00:38:14.551Z,71.30
2022-08-11T00:39:14.581Z,70.39
2022-08-11T00:40:14.532Z,69.79
2022-08-11T00:41:14.519Z,69.99
2022-08-11T00:42:14.530Z,69.99
2022-08-11T00:43:19.980Z,69.89
2022-08-11T00:44:15.504Z,70.09
2022-08-11T00:45:14.471Z,70.09
2022-08-11T00:46:14.520Z,70.59
2022-08-11T00:47:14.451Z,69.79
2022-08-11T00:48:14.451Z,70.19
2022-08-11T00:49:14.431Z,69.38
2022-08-11T00:50:14.432Z,69.79
2022-08-11T00:51:14.429Z,69.79
2022-08-11T00:52:14.413Z,69.79
2022-08-11T00:53:14.422Z,70.09
2022-08-11T00:54:14.375Z,69.18
2022-08-11T00:55:14.364Z,69.99
2022-08-11T00:56:14.351Z,70.59
2022-08-11T00:57:37.764Z,70.70
2022-08-11T00:58:15.354Z,70.83
2022-08-11T00:59:35.371Z,69.92
2022-08-11T01:00:15.315Z,70.83
2022-08-11T01:01:14.319Z,70.83
2022-08-11T01:02:14.295Z,70.32
2022-08-11T01:03:14.298Z,70.83
2022-08-11T01:04:14.275Z,70.62
2022-08-11T01:05:14.243Z,71.64
2022-08-11T01:06:14.274Z,72.04
2022-08-11T01:07:14.237Z,70.93
2022-08-11T01:08:14.280Z,70.53
2022-08-11T01:09:17.893Z,70.73
2022-08-11T01:10:15.204Z,71.84
2022-08-11T01:11:14.180Z,71.23
2022-08-11T01:12:14.187Z,71.44
2022-08-11T01:13:14.156Z,71.26
2022-08-11T01:14:14.188Z,72.07
2022-08-11T01:15:14.149Z,71.67
2022-08-11T01:16:14.157Z,72.47
2022-08-11T01:17:14.128Z,71.67
2022-08-11T01:18:14.100Z,71.47
2022-08-11T01:19:14.108Z,71.26
2022-08-11T01:20:45.493Z,71.06
2022-08-11T01:21:15.083Z,70.76
2022-08-11T01:22:14.069Z,71.06
2022-08-11T01:23:15.916Z,71.57
2022-08-11T01:24:14.068Z,71.77
2022-08-11T01:25:14.019Z,71.87
2022-08-11T01:26:14.027Z,72.27
2022-08-11T01:27:18.804Z,71.47
2022-08-11T01:28:14.999Z,71.26
2022-08-11T01:29:14.101Z,71.26
2022-08-11T01:30:13.989Z,71.17
2022-08-11T01:31:13.959Z,72.27
2022-08-11T01:32:13.955Z,72.38
2022-08-11T01:33:13.942Z,71.67
2022-08-11T01:34:13.937Z,72.27
2022-08-11T01:35:13.931Z,72.47
2022-08-11T01:36:13.911Z,72.27
2022-08-11T01:37:13.888Z,72.38
2022-08-11T01:38:13.901Z,72.67
2022-08-11T01:39:13.893Z,72.98
2022-08-11T01:40:13.941Z,72.67
2022-08-11T01:41:13.839Z,73.48
2022-08-11T01:42:13.870Z,73.28
2022-08-11T01:43:13.843Z,72.98
2022-08-11T01:44:13.835Z,73.48
2022-08-11T01:45:13.805Z,73.38
2022-08-11T01:46:13.811Z,73.48
2022-08-11T01:47:13.784Z,73.62
2022-08-11T01:48:13.792Z,73.72
2022-08-11T01:50:07.248Z,73.92
2022-08-11T01:50:14.791Z,74.02
2022-08-11T01:51:17.315Z,74.22
2022-08-11T01:52:13.732Z,73.82
2022-08-11T01:53:13.716Z,74.32
2022-08-11T01:54:13.726Z,74.22
2022-08-11T01:55:13.713Z,74.43
2022-08-11T01:56:13.684Z,74.22
2022-08-11T01:57:13.675Z,74.52
2022-08-11T01:58:13.663Z,74.22
2022-08-11T01:59:13.663Z,74.52
2022-08-11T02:00:13.656Z,73.62
2022-08-11T02:01:13.671Z,73.22
2022-08-11T02:02:21.571Z,73.72
2022-08-11T02:03:14.603Z,73.72
2022-08-11T02:04:13.599Z,73.52
2022-08-11T02:05:13.584Z,73.01
2022-08-11T02:06:13.606Z,73.32
2022-08-11T02:07:13.585Z,73.32
2022-08-11T02:08:13.568Z,72.71
2022-08-11T02:09:13.536Z,73.42
2022-08-11T02:10:13.636Z,73.11
2022-08-11T02:11:14.083Z,74.12
2022-08-11T02:12:13.525Z,73.62
2022-08-11T02:13:13.483Z,73.22
2022-08-11T02:14:13.504Z,73.11
2022-08-11T02:15:13.456Z,73.32
2022-08-11T02:16:13.468Z,73.72
2022-08-11T02:17:13.468Z,73.11
2022-08-11T02:18:13.436Z,72.71
2022-08-11T02:19:13.431Z,72.85
2022-08-11T02:20:13.439Z,73.85
2022-08-11T02:21:14.096Z,74.05
2022-08-11T02:22:13.440Z,73.25
2022-08-11T02:23:13.376Z,73.96
2022-08-11T02:24:14.388Z,74.36
2022-08-11T02:25:13.348Z,73.75
2022-08-11T02:26:13.369Z,74.16
2022-08-11T02:27:13.348Z,74.16
2022-08-11T02:28:13.340Z,74.16
2022-08-11T02:29:13.320Z,74.26
2022-08-11T02:30:13.308Z,74.19
2022-08-11T02:31:15.542Z,75.31
2022-08-11T02:32:25.250Z,75.40
2022-08-11T02:33:14.300Z,75.20
2022-08-11T02:34:13.293Z,75.10
2022-08-11T02:35:13.345Z,74.60
2022-08-11T02:36:13.228Z,74.49
2022-08-11T02:37:13.241Z,74.60
2022-08-11T02:38:13.242Z,74.60
2022-08-11T02:39:13.231Z,75.10
2022-08-11T02:40:13.182Z,75.40
2022-08-11T02:41:13.273Z,74.80
2022-08-11T02:42:34.907Z,75.00
2022-08-11T02:43:14.192Z,75.40
2022-08-11T02:44:13.156Z,75.40
2022-08-11T02:45:13.141Z,75.40
2022-08-11T02:46:17.960Z,76.11
2022-08-11T02:47:14.141Z,76.72
2022-08-11T02:48:13.141Z,76.21
2022-08-11T02:49:13.089Z,75.71
2022-08-11T02:50:13.081Z,75.60
2022-08-11T02:51:13.074Z,75.40
2022-08-11T02:52:13.053Z,75.91
2022-08-11T02:53:13.063Z,75.31
2022-08-11T02:54:13.016Z,75.51
2022-08-11T02:55:44.624Z,75.91
2022-08-11T02:56:14.013Z,76.31
2022-08-11T02:57:13.013Z,76.01
2022-08-11T02:58:12.984Z,76.51
2022-08-11T02:59:12.994Z,75.91
2022-08-11T03:00:12.956Z,75.91
2022-08-11T03:01:13.029Z,75.91
2022-08-11T03:02:13.025Z,76.42
2022-08-11T03:03:12.952Z,76.15
2022-08-11T03:04:12.937Z,76.35
2022-08-11T03:05:12.905Z,75.54
2022-08-11T03:06:12.898Z,75.84
2022-08-11T03:07:28.960Z,75.84
2022-08-11T03:08:13.868Z,75.74
2022-08-11T03:09:12.897Z,75.95
2022-08-11T03:10:12.860Z,75.95
2022-08-11T03:11:12.852Z,75.95
2022-08-11T03:12:12.825Z,75.54
2022-08-11T03:13:15.677Z,75.13
2022-08-11T03:14:12.812Z,75.95
2022-08-11T03:15:12.816Z,76.45
2022-08-11T03:16:12.785Z,75.95
2022-08-11T03:17:12.805Z,75.95
2022-08-11T03:18:12.771Z,76.86
2022-08-11T03:19:12.776Z,76.55
2022-08-11T03:20:12.729Z,75.95
2022-08-11T03:21:12.728Z,75.74
2022-08-11T03:22:12.717Z,75.64
2022-08-11T03:23:19.512Z,75.64
2022-08-11T03:24:13.722Z,75.74
2022-08-11T03:25:13.198Z,76.04
2022-08-11T03:26:12.669Z,76.15
2022-08-11T03:27:12.693Z,76.25
2022-08-11T03:28:12.637Z,75.74
2022-08-11T03:29:12.670Z,76.04
2022-08-11T03:30:13.631Z,76.35
2022-08-11T03:31:12.630Z,77.15
2022-08-11T03:32:12.608Z,76.95
2022-08-11T03:33:12.601Z,76.86
2022-08-11T03:34:12.589Z,77.36
2022-08-11T03:35:21.400Z,77.06
2022-08-11T03:36:13.550Z,77.15
2022-08-11T03:37:16.648Z,77.46
2022-08-11T03:38:12.529Z,77.26
2022-08-11T03:39:12.552Z,77.15
2022-08-11T03:40:12.510Z,77.36
2022-08-11T03:42:02.563Z,77.46
2022-08-11T03:42:13.498Z,77.46
2022-08-11T03:43:12.489Z,77.36
2022-08-11T03:44:12.462Z,77.15
2022-08-11T03:45:12.481Z,76.99
2022-08-11T03:46:12.442Z,77.26
2022-08-11T03:47:12.434Z,77.15
2022-08-11T03:48:12.422Z,76.99
2022-08-11T03:49:12.453Z,77.15
2022-08-11T03:50:12.403Z,77.66
2022-08-11T03:51:12.402Z,77.70
2022-08-11T03:52:12.386Z,77.60
2022-08-11T03:53:12.373Z,77.90
2022-08-11T03:54:12.362Z,77.60
2022-08-11T03:55:12.370Z,77.50
2022-08-11T03:56:12.330Z,77.29
2022-08-11T03:57:12.337Z,77.39
2022-08-11T03:58:12.314Z,77.29
2022-08-11T03:59:12.295Z,76.99
2022-08-11T04:00:12.306Z,77.50
2022-08-11T04:01:12.309Z,77.29
2022-08-11T04:02:12.287Z,77.39
2022-08-11T04:03:12.274Z,77.70
2022-08-11T04:04:12.239Z,77.70
2022-08-11T04:05:12.270Z,78.20
2022-08-11T04:06:12.235Z,77.09
2022-08-11T04:07:17.453Z,77.29
2022-08-11T04:08:13.202Z,77.50
2022-08-11T04:09:12.186Z,76.08
2022-08-11T04:10:12.212Z,77.06
2022-08-11T04:11:12.166Z,77.39
2022-08-11T04:12:34.702Z,77.15
2022-08-11T04:13:13.157Z,76.55
2022-08-11T04:14:12.115Z,76.95
2022-08-11T04:15:12.157Z,77.70
2022-08-11T04:16:12.928Z,76.99
2022-08-11T04:17:12.117Z,76.95
2022-08-11T04:18:12.097Z,77.39
2022-08-11T04:19:12.097Z,77.46
2022-08-11T04:20:12.078Z,77.50
2022-08-11T04:21:12.058Z,77.19
2022-08-11T04:22:12.030Z,76.95
2022-08-11T04:23:12.109Z,77.50
2022-08-11T04:24:38.664Z,77.19
2022-08-11T04:25:13.016Z,77.39
2022-08-11T04:26:18.866Z,77.29
2022-08-11T04:27:14.207Z,77.19
2022-08-11T04:28:18.895Z,77.80
2022-08-11T04:29:12.995Z,78.00
2022-08-11T04:30:12.428Z,77.50
2022-08-11T04:31:12.034Z,77.60
2022-08-11T04:32:11.950Z,78.00
2022-08-11T04:33:11.938Z,78.20
2022-08-11T04:34:11.909Z,78.41
2022-08-11T04:35:11.897Z,77.70
2022-08-11T04:36:11.890Z,77.50
2022-08-11T04:37:11.870Z,78.00
2022-08-11T04:38:11.901Z,78.41
2022-08-11T04:39:11.924Z,77.90
2022-08-11T04:40:11.842Z,77.70
2022-08-11T04:41:11.862Z,77.70
2022-08-11T04:42:11.809Z,77.29
2022-08-11T04:43:11.845Z,76.99
2022-08-11T04:44:11.783Z,77.60
2022-08-11T04:45:11.784Z,77.80
2022-08-11T04:46:11.784Z,77.80
2022-08-11T04:47:11.790Z,77.70
2022-08-11T04:48:11.742Z,77.80
2022-08-11T04:49:11.750Z,77.70
2022-08-11T04:50:11.722Z,77.70
2022-08-11T04:51:17.534Z,77.76
2022-08-11T04:52:12.709Z,77.36
2022-08-11T04:53:11.713Z,77.66
2022-08-11T04:54:11.687Z,77.76
2022-08-11T04:55:11.684Z,77.56
2022-08-11T04:56:11.663Z,77.19
2022-08-11T04:57:11.655Z,77.56
2022-08-11T04:58:11.642Z,77.66
2022-08-11T04:59:11.634Z,77.90
2022-08-11T05:00:11.619Z,78.06
2022-08-11T05:01:11.665Z,78.57
2022-08-11T05:02:17.019Z,77.97
2022-08-11T05:03:12.585Z,78.37
2022-08-11T05:04:11.574Z,78.06
2022-08-11T05:05:11.588Z,77.36
2022-08-11T05:06:11.560Z,78.06
2022-08-11T05:07:11.567Z,77.76
2022-08-11T05:08:11.514Z,78.06
2022-08-11T05:09:11.515Z,78.17
2022-08-11T05:10:11.506Z,77.66
2022-08-11T05:11:11.508Z,77.66
2022-08-11T05:12:11.493Z,78.17
2022-08-11T05:13:11.473Z,77.66
2022-08-11T05:14:11.454Z,76.95
2022-08-11T05:15:11.466Z,77.56
2022-08-11T05:16:11.450Z,77.46
2022-08-11T05:17:11.474Z,77.66
2022-08-11T05:18:11.418Z,76.95
2022-08-11T05:19:11.407Z,77.36
2022-08-11T05:20:11.386Z,77.36
2022-08-11T05:21:11.378Z,77.42
2022-08-11T05:22:11.378Z,77.22
2022-08-11T05:23:11.370Z,77.42
2022-08-11T05:24:11.347Z,77.22
2022-08-11T05:25:11.346Z,76.42
2022-08-11T05:26:46.313Z,76.42
2022-08-11T05:27:13.903Z,76.92
2022-08-11T05:28:11.306Z,76.92
2022-08-11T05:29:20.248Z,76.72
2022-08-11T05:30:12.279Z,76.82
2022-08-11T05:31:11.287Z,76.62
2022-08-11T05:32:11.300Z,77.22
2022-08-11T05:33:11.292Z,77.42
2022-08-11T05:34:11.230Z,77.22
2022-08-11T05:35:11.258Z,77.22
2022-08-11T05:36:12.215Z,77.22
2022-08-11T05:37:26.313Z,76.11
2022-08-11T05:38:12.180Z,76.72
2022-08-11T05:39:11.271Z,77.22
2022-08-11T05:40:11.250Z,77.32
2022-08-11T05:41:11.159Z,77.08
2022-08-11T05:42:11.150Z,77.28
2022-08-11T05:43:12.142Z,77.59
2022-08-11T05:44:19.598Z,77.99
2022-08-11T05:45:15.430Z,78.59
2022-08-11T05:46:13.231Z,78.70
2022-08-11T05:47:11.144Z,77.39
2022-08-11T05:48:11.077Z,77.39
2022-08-11T05:49:11.084Z,76.88
2022-08-11T05:50:13.533Z,77.19
2022-08-11T05:51:11.044Z,76.98
2022-08-11T05:52:12.632Z,77.28
2022-08-11T05:53:12.115Z,77.79
2022-08-11T05:54:28.278Z,78.09
2022-08-11T05:55:12.024Z,78.09
2022-08-11T05:56:10.983Z,77.79
2022-08-11T05:57:10.983Z,77.89
2022-08-11T05:58:11.980Z,77.28
2022-08-11T05:59:10.996Z,76.38
2022-08-11T06:00:10.945Z,76.44
2022-08-11T06:01:10.981Z,76.64
2022-08-11T06:02:10.923Z,76.64
2022-08-11T06:03:10.966Z,77.55
2022-08-11T06:04:10.884Z,77.45
2022-08-11T06:05:10.884Z,77.45
2022-08-11T06:06:10.884Z,77.15
2022-08-11T06:07:10.887Z,76.14
2022-08-11T06:08:10.879Z,76.81
2022-08-11T06:09:10.871Z,76.40
2022-08-11T06:10:10.835Z,75.20
2022-08-11T06:11:10.823Z,75.70
2022-08-11T06:12:10.802Z,75.10
2022-08-11T06:13:10.839Z,75.20
2022-08-11T06:14:10.805Z,76.00
2022-08-11T06:15:10.776Z,74.79
2022-08-11T06:16:10.759Z,75.46
2022-08-11T06:17:10.763Z,74.35
2022-08-11T06:18:10.780Z,74.55
2022-08-11T06:19:10.845Z,75.46
2022-08-11T06:20:10.715Z,75.67
2022-08-11T06:21:10.717Z,74.86
2022-08-11T06:22:10.696Z,74.35
2022-08-11T06:23:10.733Z,74.15
2022-08-11T06:24:10.676Z,74.22
2022-08-11T06:25:10.675Z,73.61
2022-08-11T06:26:10.907Z,74.42
2022-08-11T06:27:13.432Z,75.13
2022-08-11T06:28:10.656Z,74.52
2022-08-11T06:29:10.640Z,74.08
2022-08-11T06:30:10.608Z,74.18
2022-08-11T06:31:10.600Z,74.29
2022-08-11T06:32:10.579Z,73.78
2022-08-11T06:33:10.579Z,73.18
2022-08-11T06:34:10.579Z,74.08
2022-08-11T06:35:10.580Z,74.35
2022-08-11T06:36:10.552Z,73.95
2022-08-11T06:37:10.540Z,73.75
2022-08-11T06:38:10.512Z,73.55
2022-08-11T06:39:10.730Z,72.54
2022-08-11T06:40:10.502Z,71.80
2022-08-11T06:41:10.514Z,72.50
2022-08-11T06:42:10.479Z,72.71
2022-08-11T06:43:10.496Z,72.50
2022-08-11T06:44:10.462Z,72.61
2022-08-11T06:45:10.448Z,71.47
2022-08-11T06:46:10.433Z,70.76
2022-08-11T06:47:10.431Z,71.26
2022-08-11T06:48:10.428Z,69.15
2022-08-11T06:49:10.412Z,69.96
2022-08-11T06:50:10.391Z,68.92
2022-08-11T06:51:10.372Z,68.62
2022-08-11T06:52:34.073Z,67.91
2022-08-11T06:53:11.353Z,69.12
2022-08-11T06:54:10.369Z,68.59
2022-08-11T06:55:55.941Z,67.38
2022-08-11T06:56:11.332Z,68.08
2022-08-11T06:57:29.245Z,68.18
2022-08-11T06:58:11.304Z,68.99
2022-08-11T06:59:10.300Z,68.79
2022-08-11T07:00:10.284Z,68.88
2022-08-11T07:01:10.338Z,68.55
2022-08-11T07:02:10.264Z,66.64
2022-08-11T07:03:10.245Z,66.24
2022-08-11T07:04:10.276Z,66.55
2022-08-11T07:05:10.215Z,66.85
2022-08-11T07:06:10.229Z,66.21
2022-08-11T07:07:10.196Z,65.61
2022-08-11T07:08:33.268Z,64.71
2022-08-11T07:09:11.167Z,66.31
2022-08-11T07:10:10.164Z,66.41
2022-08-11T07:11:10.167Z,65.08
2022-08-11T07:12:10.144Z,66.28
2022-08-11T07:13:10.136Z,65.38
2022-08-11T07:14:11.129Z,64.98
2022-08-11T07:15:10.118Z,65.48
2022-08-11T07:16:12.167Z,64.45
2022-08-11T07:17:10.100Z,64.25
2022-08-11T07:18:10.090Z,64.15
2022-08-11T07:19:10.118Z,64.04
2022-08-11T07:20:11.091Z,62.54
2022-08-11T07:22:00.282Z,62.92
2022-08-11T07:22:11.056Z,63.42
2022-08-11T07:23:10.041Z,63.61
2022-08-11T07:24:10.024Z,63.01
2022-08-11T07:25:10.008Z,62.51
2022-08-11T07:26:10.001Z,63.78
2022-08-11T07:27:09.989Z,62.88
2022-08-11T07:28:09.968Z,62.08
2022-08-11T07:29:09.962Z,60.58
2022-08-11T07:30:09.948Z,61.58
2022-08-11T07:31:09.936Z,61.85
2022-08-11T07:32:09.941Z,62.75
2022-08-11T07:33:09.908Z,62.65
2022-08-11T07:34:12.188Z,62.95
2022-08-11T07:35:10.973Z,62.75
2022-08-11T07:36:09.883Z,62.55
2022-08-11T07:37:09.882Z,62.42
2022-08-11T07:38:09.872Z,61.72
2022-08-11T07:39:09.893Z,60.02
2022-08-11T07:40:09.841Z,59.92
2022-08-11T07:41:09.821Z,60.72
2022-08-11T07:42:09.832Z,59.99
2022-08-11T07:43:09.814Z,60.29
2022-08-11T07:44:09.797Z,59.89
2022-08-11T07:45:09.774Z,59.99
2022-08-11T07:46:09.777Z,59.69
2022-08-11T07:47:09.793Z,59.36
2022-08-11T07:48:09.742Z,59.47
2022-08-11T07:49:09.741Z,59.86
2022-08-11T07:50:09.733Z,59.97
2022-08-11T07:51:09.713Z,59.97
2022-08-11T07:52:09.712Z,59.53
2022-08-11T07:53:09.718Z,60.24
2022-08-11T07:54:16.331Z,58.64
2022-08-11T07:55:10.653Z,57.41
2022-08-11T07:56:09.674Z,58.11
2022-08-11T07:57:47.354Z,58.58
2022-08-11T07:58:19.397Z,57.78
2022-08-11T07:59:10.617Z,56.59
2022-08-11T08:00:10.171Z,58.28
2022-08-11T08:01:09.858Z,57.15
2022-08-11T08:02:09.649Z,55.36
2022-08-11T08:03:09.577Z,56.16
2022-08-11T08:04:09.607Z,56.16
2022-08-11T08:05:09.557Z,56.83
2022-08-11T08:06:35.532Z,56.13
2022-08-11T08:07:10.537Z,55.54
2022-08-11T08:08:09.544Z,55.73
2022-08-11T08:09:09.770Z,55.21
2022-08-11T08:10:09.509Z,54.61
2022-08-11T08:11:09.490Z,55.80
2022-08-11T08:12:09.488Z,55.08
2022-08-11T08:13:09.478Z,55.38
2022-08-11T08:14:09.481Z,55.55
2022-08-11T08:15:09.450Z,55.05
2022-08-11T08:16:09.449Z,54.46
2022-08-11T08:17:09.430Z,54.93
2022-08-11T08:18:25.930Z,54.24
2022-08-11T08:19:10.413Z,53.41
2022-08-11T08:20:09.403Z,54.11
2022-08-11T08:21:09.389Z,52.89
2022-08-11T08:22:38.625Z,53.09
2022-08-11T08:23:10.374Z,52.39
2022-08-11T08:24:09.381Z,52.26
2022-08-11T08:25:09.330Z,50.58
2022-08-11T08:26:16.694Z,50.98
2022-08-11T08:27:10.314Z,50.05
2022-08-11T08:28:09.313Z,50.16
2022-08-11T08:29:09.302Z,49.44
2022-08-11T08:30:09.322Z,50.93
2022-08-11T08:31:09.261Z,51.10
2022-08-11T08:32:09.283Z,50.51
2022-08-11T08:33:09.254Z,49.49
2022-08-11T08:34:09.262Z,51.45
2022-08-11T08:35:09.241Z,50.34
2022-08-11T08:36:09.246Z,49.54
2022-08-11T08:37:15.780Z,49.05
2022-08-11T08:38:10.207Z,49.91
2022-08-11T08:39:09.323Z,48.03
2022-08-11T08:40:09.194Z,48.63
2022-08-11T08:41:09.174Z,47.75
2022-08-11T08:42:09.165Z,47.34
2022-08-11T08:43:09.148Z,47.74
2022-08-11T08:44:35.226Z,49.02
2022-08-11T08:45:10.134Z,48.92
2022-08-11T08:46:09.126Z,47.61
2022-08-11T08:47:09.103Z,47.22
2022-08-11T08:48:09.101Z,47.81
2022-08-11T08:49:09.086Z,47.99
2022-08-11T08:50:09.079Z,47.19
2022-08-11T08:51:11.004Z,46.97
2022-08-11T08:52:27.927Z,45.21
2022-08-11T08:53:10.038Z,47.37
2022-08-11T08:54:09.030Z,47.56
2022-08-11T08:55:09.018Z,47.44
2022-08-11T08:56:09.011Z,46.45
2022-08-11T08:57:09.008Z,46.33
2022-08-11T08:58:08.997Z,46.44
2022-08-11T08:59:08.991Z,45.35
2022-08-11T09:00:09.021Z,45.42
2022-08-11T09:01:09.011Z,45.42
2022-08-11T09:02:08.965Z,46.81
2022-08-11T09:03:38.210Z,46.09
2022-08-11T09:04:12.325Z,45.60
2022-08-11T09:05:08.903Z,43.92
2022-08-11T09:06:08.911Z,44.51
2022-08-11T09:07:08.884Z,44.12
2022-08-11T09:08:08.871Z,44.51
2022-08-11T09:09:08.854Z,44.71
2022-08-11T09:10:08.863Z,44.02
2022-08-11T09:11:13.422Z,44.12
2022-08-11T09:12:09.871Z,43.92
2022-08-11T09:13:08.814Z,43.01
2022-08-11T09:14:14.349Z,43.01
2022-08-11T09:15:09.810Z,43.01
2022-08-11T09:16:08.794Z,46.07
2022-08-11T09:17:08.766Z,44.59
2022-08-11T09:18:08.788Z,44.07
2022-08-11T09:19:08.768Z,42.60
2022-08-11T09:20:08.749Z,42.18
2022-08-11T09:21:08.728Z,42.68
2022-08-11T09:22:08.726Z,43.05
2022-08-11T09:24:14.952Z,43.15
2022-08-11T09:25:09.719Z,41.77
2022-08-11T09:26:08.687Z,41.96
2022-08-11T09:27:08.732Z,40.56
2022-08-11T09:28:08.919Z,41.65
2022-08-11T09:29:08.651Z,40.47
2022-08-11T09:30:08.638Z,40.56
2022-08-11T09:31:08.631Z,38.58
2022-08-11T09:32:08.618Z,39.95
2022-08-11T09:33:08.618Z,41.33
2022-08-11T09:34:08.612Z,40.86
2022-08-11T09:35:08.584Z,39.68
2022-08-11T09:36:08.571Z,40.86
2022-08-11T09:37:08.558Z,39.70
2022-08-11T09:38:08.566Z,40.58
2022-08-11T09:39:08.593Z,41.67
2022-08-11T09:40:08.554Z,42.34
2022-08-11T09:41:08.511Z,41.65
2022-08-11T09:42:11.350Z,41.43
2022-08-11T09:43:09.490Z,41.63
2022-08-11T09:44:08.511Z,41.04
2022-08-11T09:45:08.480Z,40.62
2022-08-11T09:46:08.502Z,39.84
2022-08-11T09:47:08.451Z,40.33
2022-08-11T09:48:08.455Z,38.64
2022-08-11T09:49:08.469Z,39.42
2022-08-11T09:50:08.436Z,38.15
2022-08-11T09:51:08.408Z,38.64
2022-08-11T09:52:08.406Z,38.44
2022-08-11T09:53:35.900Z,39.01
2022-08-11T09:54:09.388Z,39.11
2022-08-11T09:55:08.387Z,37.24
2022-08-11T09:56:08.369Z,37.93
2022-08-11T09:57:08.355Z,36.87
2022-08-11T09:58:08.351Z,37.76
2022-08-11T09:59:08.335Z,36.77
2022-08-11T10:00:12.602Z,37.46
2022-08-11T10:01:09.352Z,38.03
2022-08-11T10:02:08.327Z,39.11
2022-08-11T10:03:08.271Z,38.34
2022-08-11T10:04:08.288Z,37.44
2022-08-11T10:05:08.330Z,37.84
2022-08-11T10:06:08.409Z,37.74
2022-08-11T10:07:08.251Z,37.85
2022-08-11T10:08:08.240Z,38.72
2022-08-11T10:09:08.219Z,38.92
2022-08-11T10:10:08.213Z,38.23
2022-08-11T10:11:08.223Z,39.68
2022-08-11T10:12:08.212Z,36.74
2022-08-11T10:14:30.157Z,37.82
2022-08-11T10:14:32.797Z,37.84
2022-08-11T10:15:09.154Z,36.83
2022-08-11T10:16:15.626Z,38.80
2022-08-11T10:17:09.143Z,36.54
2022-08-11T10:18:08.142Z,36.93
2022-08-11T10:19:08.115Z,36.24
2022-08-11T10:20:08.115Z,36.83
2022-08-11T10:21:08.095Z,38.11
2022-08-11T10:22:08.103Z,37.42
2022-08-11T10:23:08.092Z,34.95
2022-08-11T10:24:08.076Z,36.90
2022-08-11T10:25:08.044Z,36.01
2022-08-11T10:26:08.065Z,37.99
2022-08-11T10:27:08.067Z,36.62
2022-08-11T10:28:30.740Z,36.62
2022-08-11T10:29:13.352Z,38.19
2022-08-11T10:30:08.020Z,38.85
2022-08-11T10:31:12.629Z,38.07
2022-08-11T10:32:08.988Z,38.07
2022-08-11T10:33:07.968Z,36.30
2022-08-11T10:34:08.032Z,37.68
2022-08-11T10:35:07.956Z,38.56
2022-08-11T10:36:16.387Z,37.19
2022-08-11T10:37:08.940Z,36.60
2022-08-11T10:38:10.085Z,35.93
2022-08-11T10:39:07.946Z,35.93
2022-08-11T10:40:07.911Z,37.99
2022-08-11T10:41:07.881Z,36.44
2022-08-11T10:42:12.195Z,36.46
2022-08-11T10:43:08.851Z,37.34
2022-08-11T10:44:07.855Z,36.47
2022-08-11T10:45:07.844Z,35.88
2022-08-11T10:46:07.831Z,37.46
2022-08-11T10:47:07.832Z,38.03
2022-08-11T10:48:10.942Z,37.23
2022-08-11T10:49:08.796Z,39.29
2022-08-11T10:50:07.792Z,38.19
2022-08-11T10:51:07.823Z,38.58
2022-08-11T10:52:07.775Z,38.17
2022-08-11T10:53:07.763Z,37.29
2022-08-11T10:54:11.542Z,38.15
2022-08-11T10:55:07.735Z,36.39
2022-08-11T10:56:07.743Z,36.39
2022-08-11T10:57:07.796Z,37.27
2022-08-11T10:58:07.715Z,37.17
2022-08-11T10:59:07.695Z,37.27
2022-08-11T11:00:07.695Z,37.07
2022-08-11T11:01:07.737Z,37.07
2022-08-11T11:02:07.688Z,36.88
2022-08-11T11:03:23.790Z,36.58
2022-08-11T11:04:08.636Z,36.19
2022-08-11T11:05:07.639Z,36.09
2022-08-11T11:06:28.481Z,35.50
2022-08-11T11:07:08.619Z,36.29
2022-08-11T11:08:07.621Z,35.89
2022-08-11T11:09:07.599Z,35.31
2022-08-11T11:10:07.573Z,37.46
2022-08-11T11:11:07.575Z,35.10
2022-08-11T11:12:07.548Z,36.66
2022-08-11T11:13:07.568Z,36.66
2022-08-11T11:14:07.541Z,35.58
2022-08-11T11:15:08.358Z,35.47
2022-08-11T11:16:08.520Z,35.37
2022-08-11T11:17:07.512Z,36.16
2022-08-11T11:18:07.570Z,35.47
2022-08-11T11:19:07.499Z,36.53
2022-08-11T11:20:07.491Z,37.71
2022-08-11T11:21:07.487Z,36.04
2022-08-11T11:22:07.456Z,34.96
2022-08-11T11:23:07.464Z,35.75
2022-08-11T11:24:07.444Z,34.86
2022-08-11T11:25:07.424Z,34.57
2022-08-11T11:26:07.442Z,35.85
2022-08-11T11:27:07.398Z,36.14
2022-08-11T11:28:07.384Z,35.04
2022-08-11T11:29:07.399Z,36.71
2022-08-11T11:30:07.370Z,34.75
2022-08-11T11:31:07.356Z,34.45
2022-08-11T11:32:08.308Z,32.42
2022-08-11T11:33:07.366Z,33.72
2022-08-11T11:34:12.922Z,36.68
2022-08-11T11:35:08.329Z,36.47
2022-08-11T11:36:07.297Z,34.51
2022-08-11T11:37:07.288Z,35.37
2022-08-11T11:38:09.378Z,34.00
2022-08-11T11:39:08.311Z,37.04
2022-08-11T11:40:07.274Z,37.82
2022-08-11T11:41:07.260Z,35.37
2022-08-11T11:42:07.232Z,35.76
2022-08-11T11:43:07.240Z,36.55
2022-08-11T11:44:07.209Z,35.76
2022-08-11T11:45:07.232Z,37.13
2022-08-11T11:46:07.193Z,38.31
2022-08-11T11:47:07.200Z,38.12
2022-08-11T11:48:07.200Z,35.68
2022-08-11T11:49:07.213Z,34.90
2022-08-11T11:50:08.183Z,36.76
2022-08-11T11:51:07.150Z,34.51
2022-08-11T11:52:07.144Z,37.84
2022-08-11T11:53:07.130Z,36.25
2022-08-11T11:54:07.104Z,35.66
2022-08-11T11:55:07.104Z,36.53
2022-08-11T11:56:07.113Z,36.53
2022-08-11T11:57:07.104Z,34.55
2022-08-11T11:58:07.064Z,32.40
2022-08-11T11:59:07.072Z,33.75
2022-08-11T12:00:07.066Z,35.03
2022-08-11T12:01:07.045Z,35.32
2022-08-11T12:02:11.870Z,32.87
2022-08-11T12:03:08.070Z,34.64
2022-08-11T12:04:07.020Z,35.42
2022-08-11T12:05:07.008Z,36.30
2022-08-11T12:06:07.019Z,34.14
2022-08-11T12:07:07.009Z,34.34
2022-08-11T12:08:13.141Z,33.95
2022-08-11T12:09:07.969Z,35.81
2022-08-11T12:10:06.962Z,33.95
2022-08-11T12:11:06.961Z,34.84
2022-08-11T12:12:06.931Z,36.61
2022-08-11T12:13:06.922Z,31.83
2022-08-11T12:14:10.310Z,33.39
2022-08-11T12:15:06.908Z,33.22
2022-08-11T12:16:34.896Z,33.90
2022-08-11T12:17:07.881Z,34.77
2022-08-11T12:18:06.861Z,34.94
2022-08-11T12:19:06.889Z,32.99
2022-08-11T12:20:06.845Z,32.79
2022-08-11T12:21:07.862Z,32.12
2022-08-11T12:22:06.845Z,32.22
2022-08-11T12:23:06.845Z,33.02
2022-08-11T12:24:06.802Z,34.69
2022-08-11T12:25:06.794Z,34.88
2022-08-11T12:27:16.330Z,33.50
2022-08-11T12:28:07.757Z,33.69
2022-08-11T12:29:06.758Z,34.26
2022-08-11T12:30:06.749Z,32.39
2022-08-11T12:31:06.753Z,34.14
2022-08-11T12:32:06.720Z,32.29
2022-08-11T12:33:06.718Z,33.07
2022-08-11T12:34:06.685Z,34.83
2022-08-11T12:35:06.690Z,34.34
2022-08-11T12:36:06.680Z,35.22
2022-08-11T12:37:07.330Z,35.03
2022-08-11T12:38:09.537Z,34.34
2022-08-11T12:39:23.101Z,36.59
2022-08-11T12:40:16.078Z,35.99
2022-08-11T12:41:15.666Z,35.40
2022-08-11T12:42:07.651Z,34.81
2022-08-11T12:43:08.258Z,32.48
2022-08-11T12:44:07.596Z,32.78
2022-08-11T12:45:06.589Z,32.29
2022-08-11T12:46:07.561Z,34.26
2022-08-11T12:47:06.578Z,34.26
2022-08-11T12:48:07.627Z,34.26
2022-08-11T12:49:07.564Z,34.54
2022-08-11T12:50:06.536Z,36.88
2022-08-11T12:51:07.524Z,34.74
2022-08-11T12:52:14.701Z,35.22
2022-08-11T12:53:07.502Z,35.81
2022-08-11T12:54:06.648Z,35.79